sensor_id;sensor_type;location;lat;lon;timestamp;P1;durP1;ratioP1;P2;durP2;ratioP2
37267;SDS011;23154;52.542;13.362;2023-07-30T00:02:18;15.07;;;5.93;;
37267;SDS011;23154;52.542;13.362;2023-07-30T00:04:45;15.27;;;5.72;;
37267;SDS011;23154;52.542;13.362;2023-07-30T00:07:11;12.82;;;5.15;;
37267;SDS011;23154;52.542;13.362;2023-07-30T00:09:38;13.75;;;5.53;;
37267;SDS011;23154;52.542;13.362;2023-07-30T00:12:04;13.85;;;5.60;;
37267;SDS011;23154;52.542;13.362;2023-07-30T00:14:30;15.50;;;4.80;;
37267;SDS011;23154;52.542;13.362;2023-07-30T00:16:56;12.85;;;4.78;;
37267;SDS011;23154;52.542;13.362;2023-07-30T00:19:22;11.95;;;4.43;;
37267;SDS011;23154;52.542;13.362;2023-07-30T00:21:48;14.25;;;4.70;;
37267;SDS011;23154;52.542;13.362;2023-07-30T00:24:14;15.57;;;5.30;;
37267;SDS011;23154;52.542;13.362;2023-07-30T00:26:40;14.20;;;4.60;;
37267;SDS011;23154;52.542;13.362;2023-07-30T00:29:06;12.90;;;4.80;;
37267;SDS011;23154;52.542;13.362;2023-07-30T00:31:32;12.32;;;4.97;;
37267;SDS011;23154;52.542;13.362;2023-07-30T00:33:58;17.67;;;5.60;;
37267;SDS011;23154;52.542;13.362;2023-07-30T00:36:24;16.50;;;5.28;;
37267;SDS011;23154;52.542;13.362;2023-07-30T00:38:50;12.88;;;5.07;;
37267;SDS011;23154;52.542;13.362;2023-07-30T00:41:16;13.85;;;4.82;;
37267;SDS011;23154;52.542;13.362;2023-07-30T00:43:42;14.13;;;5.18;;
37267;SDS011;23154;52.542;13.362;2023-07-30T00:46:10;14.27;;;5.55;;
37267;SDS011;23154;52.542;13.362;2023-07-30T00:48:36;16.65;;;4.78;;
37267;SDS011;23154;52.542;13.362;2023-07-30T00:51:02;14.45;;;4.82;;
37267;SDS011;23154;52.542;13.362;2023-07-30T00:53:28;15.10;;;4.72;;
37267;SDS011;23154;52.542;13.362;2023-07-30T00:55:55;14.57;;;4.88;;
37267;SDS011;23154;52.542;13.362;2023-07-30T00:58:21;16.77;;;5.50;;
37267;SDS011;23154;52.542;13.362;2023-07-30T01:00:48;14.13;;;5.28;;
37267;SDS011;23154;52.542;13.362;2023-07-30T01:03:15;12.10;;;4.63;;
37267;SDS011;23154;52.542;13.362;2023-07-30T01:05:41;26.55;;;5.13;;
37267;SDS011;23154;52.542;13.362;2023-07-30T01:08:07;16.45;;;5.00;;
37267;SDS011;23154;52.542;13.362;2023-07-30T01:10:33;11.85;;;4.72;;
37267;SDS011;23154;52.542;13.362;2023-07-30T01:13:01;13.07;;;5.00;;
37267;SDS011;23154;52.542;13.362;2023-07-30T01:15:29;12.93;;;4.80;;
37267;SDS011;23154;52.542;13.362;2023-07-30T01:17:55;14.48;;;5.57;;
37267;SDS011;23154;52.542;13.362;2023-07-30T01:20:21;17.00;;;5.20;;
37267;SDS011;23154;52.542;13.362;2023-07-30T01:22:47;13.80;;;5.10;;
37267;SDS011;23154;52.542;13.362;2023-07-30T01:25:14;16.15;;;5.72;;
37267;SDS011;23154;52.542;13.362;2023-07-30T01:27:41;13.65;;;5.25;;
37267;SDS011;23154;52.542;13.362;2023-07-30T01:30:16;17.45;;;4.80;;
37267;SDS011;23154;52.542;13.362;2023-07-30T01:32:43;12.50;;;4.72;;
37267;SDS011;23154;52.542;13.362;2023-07-30T01:35:10;13.43;;;5.32;;
37267;SDS011;23154;52.542;13.362;2023-07-30T01:37:38;15.95;;;5.18;;
37267;SDS011;23154;52.542;13.362;2023-07-30T01:40:05;13.52;;;5.32;;
37267;SDS011;23154;52.542;13.362;2023-07-30T01:42:32;15.88;;;5.93;;
37267;SDS011;23154;52.542;13.362;2023-07-30T01:44:58;15.50;;;5.50;;
37267;SDS011;23154;52.542;13.362;2023-07-30T01:47:24;14.95;;;4.90;;
37267;SDS011;23154;52.542;13.362;2023-07-30T01:49:50;13.32;;;4.90;;
37267;SDS011;23154;52.542;13.362;2023-07-30T01:52:16;13.65;;;5.22;;
37267;SDS011;23154;52.542;13.362;2023-07-30T01:54:42;16.20;;;5.68;;
37267;SDS011;23154;52.542;13.362;2023-07-30T01:57:08;15.85;;;5.18;;
37267;SDS011;23154;52.542;13.362;2023-07-30T01:59:34;15.93;;;6.05;;
37267;SDS011;23154;52.542;13.362;2023-07-30T02:02:00;16.25;;;5.35;;
37267;SDS011;23154;52.542;13.362;2023-07-30T02:04:26;14.93;;;5.78;;
37267;SDS011;23154;52.542;13.362;2023-07-30T02:06:52;13.57;;;5.32;;
37267;SDS011;23154;52.542;13.362;2023-07-30T02:09:18;13.63;;;5.10;;
37267;SDS011;23154;52.542;13.362;2023-07-30T02:11:44;16.40;;;5.50;;
37267;SDS011;23154;52.542;13.362;2023-07-30T02:14:10;15.60;;;5.65;;
37267;SDS011;23154;52.542;13.362;2023-07-30T02:16:36;16.20;;;6.05;;
37267;SDS011;23154;52.542;13.362;2023-07-30T02:19:03;15.45;;;5.68;;
37267;SDS011;23154;52.542;13.362;2023-07-30T02:21:29;14.68;;;5.22;;
37267;SDS011;23154;52.542;13.362;2023-07-30T02:23:57;15.40;;;6.20;;
37267;SDS011;23154;52.542;13.362;2023-07-30T02:26:23;16.75;;;5.80;;
37267;SDS011;23154;52.542;13.362;2023-07-30T02:28:49;15.55;;;6.30;;
37267;SDS011;23154;52.542;13.362;2023-07-30T02:31:15;18.33;;;6.22;;
37267;SDS011;23154;52.542;13.362;2023-07-30T02:33:41;19.85;;;6.25;;
37267;SDS011;23154;52.542;13.362;2023-07-30T02:36:07;15.93;;;5.85;;
37267;SDS011;23154;52.542;13.362;2023-07-30T02:38:33;17.88;;;6.97;;
37267;SDS011;23154;52.542;13.362;2023-07-30T02:40:59;15.10;;;5.93;;
37267;SDS011;23154;52.542;13.362;2023-07-30T02:43:25;13.30;;;5.72;;
37267;SDS011;23154;52.542;13.362;2023-07-30T02:45:51;14.80;;;5.97;;
37267;SDS011;23154;52.542;13.362;2023-07-30T02:48:17;16.70;;;6.30;;
37267;SDS011;23154;52.542;13.362;2023-07-30T02:50:43;16.15;;;6.32;;
37267;SDS011;23154;52.542;13.362;2023-07-30T02:53:09;13.82;;;5.75;;
37267;SDS011;23154;52.542;13.362;2023-07-30T02:55:35;16.95;;;5.85;;
37267;SDS011;23154;52.542;13.362;2023-07-30T02:58:01;17.77;;;6.00;;
37267;SDS011;23154;52.542;13.362;2023-07-30T03:00:27;18.52;;;6.07;;
37267;SDS011;23154;52.542;13.362;2023-07-30T03:02:53;14.20;;;5.38;;
37267;SDS011;23154;52.542;13.362;2023-07-30T03:05:19;13.68;;;5.55;;
37267;SDS011;23154;52.542;13.362;2023-07-30T03:07:45;15.45;;;6.00;;
37267;SDS011;23154;52.542;13.362;2023-07-30T03:10:11;15.95;;;4.95;;
37267;SDS011;23154;52.542;13.362;2023-07-30T03:12:37;16.08;;;5.32;;
37267;SDS011;23154;52.542;13.362;2023-07-30T03:15:03;13.75;;;5.32;;
37267;SDS011;23154;52.542;13.362;2023-07-30T03:17:29;14.38;;;5.40;;
37267;SDS011;23154;52.542;13.362;2023-07-30T03:19:55;14.57;;;5.03;;
37267;SDS011;23154;52.542;13.362;2023-07-30T03:22:21;17.38;;;5.80;;
37267;SDS011;23154;52.542;13.362;2023-07-30T03:24:47;15.32;;;5.57;;
37267;SDS011;23154;52.542;13.362;2023-07-30T03:27:13;14.23;;;4.68;;
37267;SDS011;23154;52.542;13.362;2023-07-30T03:29:39;11.82;;;5.07;;
37267;SDS011;23154;52.542;13.362;2023-07-30T03:32:05;13.60;;;5.20;;
37267;SDS011;23154;52.542;13.362;2023-07-30T03:34:31;13.88;;;4.85;;
37267;SDS011;23154;52.542;13.362;2023-07-30T03:36:57;12.55;;;4.80;;
37267;SDS011;23154;52.542;13.362;2023-07-30T03:39:25;13.73;;;5.30;;
37267;SDS011;23154;52.542;13.362;2023-07-30T03:41:51;15.80;;;5.65;;
37267;SDS011;23154;52.542;13.362;2023-07-30T03:44:17;13.63;;;5.15;;
37267;SDS011;23154;52.542;13.362;2023-07-30T03:46:43;12.73;;;5.25;;
37267;SDS011;23154;52.542;13.362;2023-07-30T03:49:10;17.45;;;5.50;;
37267;SDS011;23154;52.542;13.362;2023-07-30T03:51:36;13.35;;;4.68;;
37267;SDS011;23154;52.542;13.362;2023-07-30T03:54:03;14.07;;;4.93;;
37267;SDS011;23154;52.542;13.362;2023-07-30T03:56:30;15.32;;;5.32;;
37267;SDS011;23154;52.542;13.362;2023-07-30T03:58:56;17.27;;;5.55;;
37267;SDS011;23154;52.542;13.362;2023-07-30T04:01:22;16.42;;;5.85;;
37267;SDS011;23154;52.542;13.362;2023-07-30T04:03:48;18.58;;;5.63;;
37267;SDS011;23154;52.542;13.362;2023-07-30T04:06:14;15.88;;;5.57;;
37267;SDS011;23154;52.542;13.362;2023-07-30T04:08:40;13.57;;;5.35;;
37267;SDS011;23154;52.542;13.362;2023-07-30T04:11:06;15.05;;;5.55;;
37267;SDS011;23154;52.542;13.362;2023-07-30T04:13:32;12.15;;;5.07;;
37267;SDS011;23154;52.542;13.362;2023-07-30T04:15:58;16.48;;;5.25;;
37267;SDS011;23154;52.542;13.362;2023-07-30T04:18:24;13.52;;;5.22;;
37267;SDS011;23154;52.542;13.362;2023-07-30T04:20:50;12.75;;;5.40;;
37267;SDS011;23154;52.542;13.362;2023-07-30T04:23:16;15.20;;;4.90;;
37267;SDS011;23154;52.542;13.362;2023-07-30T04:25:42;15.98;;;5.22;;
37267;SDS011;23154;52.542;13.362;2023-07-30T04:28:08;13.55;;;5.10;;
37267;SDS011;23154;52.542;13.362;2023-07-30T04:30:34;14.75;;;5.82;;
37267;SDS011;23154;52.542;13.362;2023-07-30T04:33:00;12.73;;;4.82;;
37267;SDS011;23154;52.542;13.362;2023-07-30T04:35:26;16.05;;;5.38;;
37267;SDS011;23154;52.542;13.362;2023-07-30T04:37:52;12.43;;;5.03;;
37267;SDS011;23154;52.542;13.362;2023-07-30T04:40:18;13.32;;;5.20;;
37267;SDS011;23154;52.542;13.362;2023-07-30T04:42:44;15.00;;;4.60;;
37267;SDS011;23154;52.542;13.362;2023-07-30T04:45:11;16.20;;;5.07;;
37267;SDS011;23154;52.542;13.362;2023-07-30T04:47:37;12.38;;;4.90;;
37267;SDS011;23154;52.542;13.362;2023-07-30T04:50:03;12.70;;;5.18;;
37267;SDS011;23154;52.542;13.362;2023-07-30T04:52:29;11.40;;;5.22;;
37267;SDS011;23154;52.542;13.362;2023-07-30T04:54:55;12.75;;;5.13;;
37267;SDS011;23154;52.542;13.362;2023-07-30T04:57:21;14.02;;;5.00;;
37267;SDS011;23154;52.542;13.362;2023-07-30T04:59:47;13.30;;;5.43;;
37267;SDS011;23154;52.542;13.362;2023-07-30T05:02:13;10.05;;;3.97;;
37267;SDS011;23154;52.542;13.362;2023-07-30T05:04:39;10.18;;;4.55;;
37267;SDS011;23154;52.542;13.362;2023-07-30T05:07:05;11.50;;;4.32;;
37267;SDS011;23154;52.542;13.362;2023-07-30T05:09:31;18.13;;;4.78;;
37267;SDS011;23154;52.542;13.362;2023-07-30T05:11:57;12.10;;;4.15;;
37267;SDS011;23154;52.542;13.362;2023-07-30T05:14:23;11.13;;;4.45;;
37267;SDS011;23154;52.542;13.362;2023-07-30T05:16:49;12.32;;;4.35;;
37267;SDS011;23154;52.542;13.362;2023-07-30T05:19:16;17.67;;;4.50;;
37267;SDS011;23154;52.542;13.362;2023-07-30T05:21:42;10.70;;;4.15;;
37267;SDS011;23154;52.542;13.362;2023-07-30T05:24:08;10.88;;;3.70;;
37267;SDS011;23154;52.542;13.362;2023-07-30T05:26:34;11.98;;;3.90;;
37267;SDS011;23154;52.542;13.362;2023-07-30T05:29:00;9.48;;;3.60;;
37267;SDS011;23154;52.542;13.362;2023-07-30T05:31:26;13.88;;;3.72;;
37267;SDS011;23154;52.542;13.362;2023-07-30T05:33:52;10.38;;;3.67;;
37267;SDS011;23154;52.542;13.362;2023-07-30T05:36:18;8.07;;;3.40;;
37267;SDS011;23154;52.542;13.362;2023-07-30T05:38:44;8.95;;;3.20;;
37267;SDS011;23154;52.542;13.362;2023-07-30T05:41:10;9.00;;;3.20;;
37267;SDS011;23154;52.542;13.362;2023-07-30T05:43:36;8.07;;;3.05;;
37267;SDS011;23154;52.542;13.362;2023-07-30T05:46:02;9.05;;;3.30;;
37267;SDS011;23154;52.542;13.362;2023-07-30T05:48:28;8.00;;;3.00;;
37267;SDS011;23154;52.542;13.362;2023-07-30T05:50:54;7.60;;;3.30;;
37267;SDS011;23154;52.542;13.362;2023-07-30T05:53:20;10.20;;;3.38;;
37267;SDS011;23154;52.542;13.362;2023-07-30T05:55:46;11.75;;;3.70;;
37267;SDS011;23154;52.542;13.362;2023-07-30T05:58:13;11.30;;;3.55;;
37267;SDS011;23154;52.542;13.362;2023-07-30T06:00:39;11.80;;;3.60;;
37267;SDS011;23154;52.542;13.362;2023-07-30T06:03:05;9.35;;;3.42;;
37267;SDS011;23154;52.542;13.362;2023-07-30T06:05:38;11.02;;;3.72;;
37267;SDS011;23154;52.542;13.362;2023-07-30T06:08:04;8.23;;;3.58;;
37267;SDS011;23154;52.542;13.362;2023-07-30T06:10:30;10.48;;;3.70;;
37267;SDS011;23154;52.542;13.362;2023-07-30T06:12:56;10.65;;;3.63;;
37267;SDS011;23154;52.542;13.362;2023-07-30T06:15:22;10.82;;;3.85;;
37267;SDS011;23154;52.542;13.362;2023-07-30T06:17:48;9.13;;;3.70;;
37267;SDS011;23154;52.542;13.362;2023-07-30T06:20:14;10.55;;;3.50;;
37267;SDS011;23154;52.542;13.362;2023-07-30T06:22:40;9.50;;;3.58;;
37267;SDS011;23154;52.542;13.362;2023-07-30T06:25:06;10.18;;;3.20;;
37267;SDS011;23154;52.542;13.362;2023-07-30T06:27:32;10.13;;;3.10;;
37267;SDS011;23154;52.542;13.362;2023-07-30T06:29:58;10.27;;;3.53;;
37267;SDS011;23154;52.542;13.362;2023-07-30T06:32:24;8.15;;;3.28;;
37267;SDS011;23154;52.542;13.362;2023-07-30T06:34:50;10.73;;;3.10;;
37267;SDS011;23154;52.542;13.362;2023-07-30T06:37:16;10.52;;;3.45;;
37267;SDS011;23154;52.542;13.362;2023-07-30T06:39:42;9.82;;;2.90;;
37267;SDS011;23154;52.542;13.362;2023-07-30T06:42:08;7.90;;;2.92;;
37267;SDS011;23154;52.542;13.362;2023-07-30T06:44:34;7.18;;;2.70;;
37267;SDS011;23154;52.542;13.362;2023-07-30T06:47:00;6.28;;;2.45;;
37267;SDS011;23154;52.542;13.362;2023-07-30T06:49:26;7.45;;;2.90;;
37267;SDS011;23154;52.542;13.362;2023-07-30T06:51:53;9.38;;;3.03;;
37267;SDS011;23154;52.542;13.362;2023-07-30T06:54:20;6.90;;;2.50;;
37267;SDS011;23154;52.542;13.362;2023-07-30T06:56:46;7.72;;;2.40;;
37267;SDS011;23154;52.542;13.362;2023-07-30T06:59:12;6.68;;;2.58;;
37267;SDS011;23154;52.542;13.362;2023-07-30T07:01:38;9.85;;;2.80;;
37267;SDS011;23154;52.542;13.362;2023-07-30T07:04:04;10.10;;;3.13;;
37267;SDS011;23154;52.542;13.362;2023-07-30T07:06:30;7.55;;;2.78;;
37267;SDS011;23154;52.542;13.362;2023-07-30T07:08:56;7.70;;;2.53;;
37267;SDS011;23154;52.542;13.362;2023-07-30T07:11:22;6.07;;;2.63;;
37267;SDS011;23154;52.542;13.362;2023-07-30T07:13:48;9.32;;;2.80;;
37267;SDS011;23154;52.542;13.362;2023-07-30T07:16:14;12.98;;;3.67;;
37267;SDS011;23154;52.542;13.362;2023-07-30T07:18:40;12.98;;;5.18;;
37267;SDS011;23154;52.542;13.362;2023-07-30T07:21:06;8.38;;;3.17;;
37267;SDS011;23154;52.542;13.362;2023-07-30T07:23:33;16.80;;;3.60;;
37267;SDS011;23154;52.542;13.362;2023-07-30T07:25:59;10.25;;;3.20;;
37267;SDS011;23154;52.542;13.362;2023-07-30T07:28:25;6.38;;;2.60;;
37267;SDS011;23154;52.542;13.362;2023-07-30T07:30:51;6.93;;;2.83;;
37267;SDS011;23154;52.542;13.362;2023-07-30T07:33:17;11.73;;;3.42;;
37267;SDS011;23154;52.542;13.362;2023-07-30T07:35:43;9.00;;;3.20;;
37267;SDS011;23154;52.542;13.362;2023-07-30T07:38:09;7.05;;;2.83;;
37267;SDS011;23154;52.542;13.362;2023-07-30T07:40:36;9.18;;;2.88;;
37267;SDS011;23154;52.542;13.362;2023-07-30T07:43:04;8.55;;;3.45;;
37267;SDS011;23154;52.542;13.362;2023-07-30T07:45:30;10.07;;;3.45;;
37267;SDS011;23154;52.542;13.362;2023-07-30T07:47:56;9.65;;;3.45;;
37267;SDS011;23154;52.542;13.362;2023-07-30T07:50:22;7.57;;;3.00;;
37267;SDS011;23154;52.542;13.362;2023-07-30T07:52:48;12.50;;;3.78;;
37267;SDS011;23154;52.542;13.362;2023-07-30T07:55:14;9.60;;;3.05;;
37267;SDS011;23154;52.542;13.362;2023-07-30T07:57:40;8.43;;;3.00;;
37267;SDS011;23154;52.542;13.362;2023-07-30T08:00:06;9.45;;;3.33;;
37267;SDS011;23154;52.542;13.362;2023-07-30T08:02:33;13.05;;;3.83;;
37267;SDS011;23154;52.542;13.362;2023-07-30T08:04:59;9.27;;;3.30;;
37267;SDS011;23154;52.542;13.362;2023-07-30T08:07:25;10.30;;;3.40;;
37267;SDS011;23154;52.542;13.362;2023-07-30T08:09:51;10.75;;;2.75;;
37267;SDS011;23154;52.542;13.362;2023-07-30T08:12:19;8.52;;;3.00;;
37267;SDS011;23154;52.542;13.362;2023-07-30T08:14:45;13.60;;;3.58;;
37267;SDS011;23154;52.542;13.362;2023-07-30T08:17:11;10.98;;;3.10;;
37267;SDS011;23154;52.542;13.362;2023-07-30T08:19:37;10.90;;;3.63;;
37267;SDS011;23154;52.542;13.362;2023-07-30T08:22:03;9.90;;;3.35;;
37267;SDS011;23154;52.542;13.362;2023-07-30T08:24:29;9.02;;;3.08;;
37267;SDS011;23154;52.542;13.362;2023-07-30T08:26:55;10.50;;;2.97;;
37267;SDS011;23154;52.542;13.362;2023-07-30T08:29:21;8.25;;;2.97;;
37267;SDS011;23154;52.542;13.362;2023-07-30T08:31:47;9.90;;;3.60;;
37267;SDS011;23154;52.542;13.362;2023-07-30T08:34:13;8.73;;;3.08;;
37267;SDS011;23154;52.542;13.362;2023-07-30T08:36:39;10.02;;;2.85;;
37267;SDS011;23154;52.542;13.362;2023-07-30T08:39:05;8.15;;;2.80;;
37267;SDS011;23154;52.542;13.362;2023-07-30T08:41:31;9.75;;;2.83;;
37267;SDS011;23154;52.542;13.362;2023-07-30T08:43:57;4.75;;;2.20;;
37267;SDS011;23154;52.542;13.362;2023-07-30T08:46:24;13.73;;;2.78;;
37267;SDS011;23154;52.542;13.362;2023-07-30T08:48:50;12.25;;;3.00;;
37267;SDS011;23154;52.542;13.362;2023-07-30T08:51:16;7.90;;;2.50;;
37267;SDS011;23154;52.542;13.362;2023-07-30T08:53:43;10.23;;;2.90;;
37267;SDS011;23154;52.542;13.362;2023-07-30T08:56:09;13.75;;;2.80;;
37267;SDS011;23154;52.542;13.362;2023-07-30T08:58:35;8.43;;;2.90;;
37267;SDS011;23154;52.542;13.362;2023-07-30T09:01:04;9.40;;;2.70;;
37267;SDS011;23154;52.542;13.362;2023-07-30T09:03:31;7.43;;;2.53;;
37267;SDS011;23154;52.542;13.362;2023-07-30T09:05:59;8.52;;;2.80;;
37267;SDS011;23154;52.542;13.362;2023-07-30T09:08:25;9.77;;;2.70;;
37267;SDS011;23154;52.542;13.362;2023-07-30T09:10:51;9.75;;;2.70;;
37267;SDS011;23154;52.542;13.362;2023-07-30T09:13:21;10.50;;;2.70;;
37267;SDS011;23154;52.542;13.362;2023-07-30T09:15:48;9.00;;;2.97;;
37267;SDS011;23154;52.542;13.362;2023-07-30T09:18:17;7.57;;;2.50;;
37267;SDS011;23154;52.542;13.362;2023-07-30T09:20:46;9.15;;;2.92;;
37267;SDS011;23154;52.542;13.362;2023-07-30T09:23:13;10.63;;;3.03;;
37267;SDS011;23154;52.542;13.362;2023-07-30T09:25:39;6.47;;;2.42;;
37267;SDS011;23154;52.542;13.362;2023-07-30T09:28:05;8.70;;;2.70;;
37267;SDS011;23154;52.542;13.362;2023-07-30T09:30:32;11.70;;;2.92;;
37267;SDS011;23154;52.542;13.362;2023-07-30T09:32:58;9.20;;;2.97;;
37267;SDS011;23154;52.542;13.362;2023-07-30T09:35:25;13.65;;;2.80;;
37267;SDS011;23154;52.542;13.362;2023-07-30T09:38:01;14.30;;;2.95;;
37267;SDS011;23154;52.542;13.362;2023-07-30T09:40:34;8.90;;;2.70;;
37267;SDS011;23154;52.542;13.362;2023-07-30T09:43:04;13.15;;;2.70;;
37267;SDS011;23154;52.542;13.362;2023-07-30T09:45:33;10.33;;;2.40;;
37267;SDS011;23154;52.542;13.362;2023-07-30T09:47:59;10.47;;;2.70;;
37267;SDS011;23154;52.542;13.362;2023-07-30T09:50:25;13.13;;;3.17;;
37267;SDS011;23154;52.542;13.362;2023-07-30T09:52:51;9.45;;;2.58;;
37267;SDS011;23154;52.542;13.362;2023-07-30T09:55:18;12.20;;;2.95;;
37267;SDS011;23154;52.542;13.362;2023-07-30T09:57:44;8.38;;;2.78;;
37267;SDS011;23154;52.542;13.362;2023-07-30T10:00:10;12.60;;;2.67;;
37267;SDS011;23154;52.542;13.362;2023-07-30T10:02:41;10.50;;;2.58;;
37267;SDS011;23154;52.542;13.362;2023-07-30T10:05:08;9.70;;;2.72;;
37267;SDS011;23154;52.542;13.362;2023-07-30T10:07:36;12.55;;;2.50;;
37267;SDS011;23154;52.542;13.362;2023-07-30T10:10:04;8.07;;;2.33;;
37267;SDS011;23154;52.542;13.362;2023-07-30T10:12:31;13.50;;;2.80;;
37267;SDS011;23154;52.542;13.362;2023-07-30T10:14:58;9.38;;;2.40;;
37267;SDS011;23154;52.542;13.362;2023-07-30T10:17:24;8.68;;;2.55;;
37267;SDS011;23154;52.542;13.362;2023-07-30T10:19:50;9.48;;;2.67;;
37267;SDS011;23154;52.542;13.362;2023-07-30T10:24:55;9.68;;;2.50;;
37267;SDS011;23154;52.542;13.362;2023-07-30T10:27:26;7.93;;;2.38;;
37267;SDS011;23154;52.542;13.362;2023-07-30T10:30:14;7.90;;;2.72;;
37267;SDS011;23154;52.542;13.362;2023-07-30T10:33:02;6.82;;;2.40;;
37267;SDS011;23154;52.542;13.362;2023-07-30T10:35:39;9.32;;;2.33;;
37267;SDS011;23154;52.542;13.362;2023-07-30T10:38:12;5.85;;;2.38;;
37267;SDS011;23154;52.542;13.362;2023-07-30T10:40:39;8.02;;;2.40;;
37267;SDS011;23154;52.542;13.362;2023-07-30T10:43:14;10.70;;;2.50;;
37267;SDS011;23154;52.542;13.362;2023-07-30T10:45:50;9.48;;;2.60;;
37267;SDS011;23154;52.542;13.362;2023-07-30T10:48:17;10.40;;;2.50;;
37267;SDS011;23154;52.542;13.362;2023-07-30T10:50:43;9.05;;;2.40;;
37267;SDS011;23154;52.542;13.362;2023-07-30T10:53:14;9.63;;;2.33;;
37267;SDS011;23154;52.542;13.362;2023-07-30T10:55:43;9.85;;;2.40;;
37267;SDS011;23154;52.542;13.362;2023-07-30T10:58:10;13.38;;;3.40;;
37267;SDS011;23154;52.542;13.362;2023-07-30T11:00:36;16.48;;;4.13;;
37267;SDS011;23154;52.542;13.362;2023-07-30T11:03:03;11.88;;;3.10;;
37267;SDS011;23154;52.542;13.362;2023-07-30T11:05:29;9.18;;;2.33;;
37267;SDS011;23154;52.542;13.362;2023-07-30T11:07:55;15.05;;;3.85;;
37267;SDS011;23154;52.542;13.362;2023-07-30T11:10:21;8.95;;;2.38;;
37267;SDS011;23154;52.542;13.362;2023-07-30T11:12:48;13.20;;;2.80;;
37267;SDS011;23154;52.542;13.362;2023-07-30T11:15:15;17.48;;;5.30;;
37267;SDS011;23154;52.542;13.362;2023-07-30T11:17:41;12.57;;;2.47;;
37267;SDS011;23154;52.542;13.362;2023-07-30T11:20:21;7.53;;;2.15;;
37267;SDS011;23154;52.542;13.362;2023-07-30T11:22:47;9.80;;;2.70;;
37267;SDS011;23154;52.542;13.362;2023-07-30T11:25:17;10.48;;;2.53;;
37267;SDS011;23154;52.542;13.362;2023-07-30T11:27:49;9.67;;;2.50;;
37267;SDS011;23154;52.542;13.362;2023-07-30T11:30:15;10.15;;;2.58;;
37267;SDS011;23154;52.542;13.362;2023-07-30T11:32:42;8.52;;;2.20;;
37267;SDS011;23154;52.542;13.362;2023-07-30T11:35:09;10.07;;;2.58;;
37267;SDS011;23154;52.542;13.362;2023-07-30T11:37:36;11.43;;;2.55;;
37267;SDS011;23154;52.542;13.362;2023-07-30T11:40:06;8.70;;;2.40;;
37267;SDS011;23154;52.542;13.362;2023-07-30T11:42:32;9.30;;;2.40;;
37267;SDS011;23154;52.542;13.362;2023-07-30T11:44:59;11.18;;;2.47;;
37267;SDS011;23154;52.542;13.362;2023-07-30T11:47:25;10.27;;;2.60;;
37267;SDS011;23154;52.542;13.362;2023-07-30T11:49:56;9.75;;;2.17;;
37267;SDS011;23154;52.542;13.362;2023-07-30T11:52:22;10.77;;;2.50;;
37267;SDS011;23154;52.542;13.362;2023-07-30T11:54:58;9.95;;;2.30;;
37267;SDS011;23154;52.542;13.362;2023-07-30T11:57:32;9.63;;;2.38;;
37267;SDS011;23154;52.542;13.362;2023-07-30T11:59:58;12.93;;;2.50;;
37267;SDS011;23154;52.542;13.362;2023-07-30T12:02:24;8.40;;;2.40;;
37267;SDS011;23154;52.542;13.362;2023-07-30T12:04:51;8.00;;;2.10;;
37267;SDS011;23154;52.542;13.362;2023-07-30T12:07:23;9.40;;;2.20;;
37267;SDS011;23154;52.542;13.362;2023-07-30T12:09:49;8.05;;;2.42;;
37267;SDS011;23154;52.542;13.362;2023-07-30T12:12:15;10.38;;;2.30;;
37267;SDS011;23154;52.542;13.362;2023-07-30T12:14:52;9.18;;;2.30;;
37267;SDS011;23154;52.542;13.362;2023-07-30T12:17:19;10.10;;;2.17;;
37267;SDS011;23154;52.542;13.362;2023-07-30T12:19:45;11.13;;;2.63;;
37267;SDS011;23154;52.542;13.362;2023-07-30T12:22:11;8.05;;;2.20;;
37267;SDS011;23154;52.542;13.362;2023-07-30T12:24:37;13.30;;;2.65;;
37267;SDS011;23154;52.542;13.362;2023-07-30T12:27:03;9.02;;;2.38;;
37267;SDS011;23154;52.542;13.362;2023-07-30T12:29:29;12.10;;;2.70;;
37267;SDS011;23154;52.542;13.362;2023-07-30T12:31:55;10.30;;;2.67;;
37267;SDS011;23154;52.542;13.362;2023-07-30T12:34:22;10.73;;;2.70;;
37267;SDS011;23154;52.542;13.362;2023-07-30T12:36:48;7.15;;;2.33;;
37267;SDS011;23154;52.542;13.362;2023-07-30T12:39:14;9.65;;;2.20;;
37267;SDS011;23154;52.542;13.362;2023-07-30T12:41:40;9.73;;;2.28;;
37267;SDS011;23154;52.542;13.362;2023-07-30T12:44:06;9.40;;;2.10;;
37267;SDS011;23154;52.542;13.362;2023-07-30T12:46:34;8.48;;;1.92;;
37267;SDS011;23154;52.542;13.362;2023-07-30T12:49:00;9.35;;;2.53;;
37267;SDS011;23154;52.542;13.362;2023-07-30T12:51:29;11.43;;;2.50;;
37267;SDS011;23154;52.542;13.362;2023-07-30T12:53:55;8.38;;;2.17;;
37267;SDS011;23154;52.542;13.362;2023-07-30T12:56:21;12.20;;;2.60;;
37267;SDS011;23154;52.542;13.362;2023-07-30T12:58:47;9.23;;;2.45;;
37267;SDS011;23154;52.542;13.362;2023-07-30T13:01:13;8.57;;;2.47;;
37267;SDS011;23154;52.542;13.362;2023-07-30T13:03:39;9.88;;;2.63;;
37267;SDS011;23154;52.542;13.362;2023-07-30T13:06:10;17.67;;;2.72;;
37267;SDS011;23154;52.542;13.362;2023-07-30T13:08:36;12.73;;;2.70;;
37267;SDS011;23154;52.542;13.362;2023-07-30T13:11:02;12.70;;;2.45;;
37267;SDS011;23154;52.542;13.362;2023-07-30T13:13:28;8.52;;;2.10;;
37267;SDS011;23154;52.542;13.362;2023-07-30T13:15:54;10.82;;;2.53;;
37267;SDS011;23154;52.542;13.362;2023-07-30T13:18:22;6.75;;;2.20;;
37267;SDS011;23154;52.542;13.362;2023-07-30T13:20:49;9.40;;;2.45;;
37267;SDS011;23154;52.542;13.362;2023-07-30T13:23:15;8.00;;;2.42;;
37267;SDS011;23154;52.542;13.362;2023-07-30T13:25:41;11.85;;;2.40;;
37267;SDS011;23154;52.542;13.362;2023-07-30T13:28:07;7.53;;;2.30;;
37267;SDS011;23154;52.542;13.362;2023-07-30T13:30:33;10.65;;;2.40;;
37267;SDS011;23154;52.542;13.362;2023-07-30T13:32:59;6.45;;;2.20;;
37267;SDS011;23154;52.542;13.362;2023-07-30T13:35:25;7.47;;;2.20;;
37267;SDS011;23154;52.542;13.362;2023-07-30T13:37:51;11.75;;;3.40;;
37267;SDS011;23154;52.542;13.362;2023-07-30T13:40:17;11.60;;;3.10;;
37267;SDS011;23154;52.542;13.362;2023-07-30T13:42:43;11.02;;;2.65;;
37267;SDS011;23154;52.542;13.362;2023-07-30T13:45:09;9.40;;;2.25;;
37267;SDS011;23154;52.542;13.362;2023-07-30T13:47:35;5.63;;;2.00;;
37267;SDS011;23154;52.542;13.362;2023-07-30T13:50:01;6.78;;;1.95;;
37267;SDS011;23154;52.542;13.362;2023-07-30T13:52:28;8.73;;;2.15;;
37267;SDS011;23154;52.542;13.362;2023-07-30T13:54:54;8.70;;;2.00;;
37267;SDS011;23154;52.542;13.362;2023-07-30T13:57:23;10.57;;;2.42;;
37267;SDS011;23154;52.542;13.362;2023-07-30T13:59:49;7.43;;;2.00;;
37267;SDS011;23154;52.542;13.362;2023-07-30T14:02:15;6.32;;;2.00;;
37267;SDS011;23154;52.542;13.362;2023-07-30T14:04:41;11.10;;;2.30;;
37267;SDS011;23154;52.542;13.362;2023-07-30T14:07:07;8.77;;;2.33;;
37267;SDS011;23154;52.542;13.362;2023-07-30T14:09:33;9.57;;;2.33;;
37267;SDS011;23154;52.542;13.362;2023-07-30T14:12:01;10.77;;;2.45;;
37267;SDS011;23154;52.542;13.362;2023-07-30T14:14:27;8.27;;;2.15;;
37267;SDS011;23154;52.542;13.362;2023-07-30T14:16:53;10.32;;;2.10;;
37267;SDS011;23154;52.542;13.362;2023-07-30T14:19:20;6.50;;;1.77;;
37267;SDS011;23154;52.542;13.362;2023-07-30T14:21:46;13.32;;;2.28;;
37267;SDS011;23154;52.542;13.362;2023-07-30T14:24:12;7.03;;;1.88;;
37267;SDS011;23154;52.542;13.362;2023-07-30T14:26:38;9.73;;;1.92;;